Time;durP1;ratioP1;P1;durP2;ratioP2;P2;SDS_P1;SDS_P2;PMS_P1;PMS_P2;Temp;Humidity;BMP_temperature;BMP_pressure;BME280_temperature;BME280_humidity;BME280_pressure;Samples;Min_cycle;Max_cycle;Signal;HPM_P1;HPM_P2
2022/03/30 00:01:45;;;;;;;27.95;18.08;;;;;;;4.28;60.13;100015.16;5086781;28;20063;-25
2022/03/30 00:04:10;;;;;;;29.48;17.67;;;;;;;4.27;60.16;100013.41;5088507;28;20027;-23
2022/03/30 00:06:35;;;;;;;28.92;17.65;;;;;;;4.23;60.49;100013.38;5070286;28;20474;-24
2022/03/30 00:09:01;;;;;;;30.27;18.30;;;;;;;4.23;60.52;100002.94;5087642;28;20020;-23
2022/03/30 00:11:26;;;;;;;30.05;17.40;;;;;;;4.22;60.27;100005.53;5084754;28;20032;-21
2022/03/30 00:13:52;;;;;;;29.42;17.55;;;;;;;4.20;60.27;100002.91;5085780;28;20020;-26
2022/03/30 00:16:17;;;;;;;31.05;17.70;;;;;;;4.18;60.13;100004.66;5086527;28;20098;-20
2022/03/30 00:18:43;;;;;;;31.83;17.23;;;;;;;4.16;60.28;100001.16;5088177;28;20055;-22
2022/03/30 00:21:08;;;;;;;31.05;17.15;;;;;;;4.15;60.31;100002.03;5086844;28;20501;-31
2022/03/30 00:23:34;;;;;;;28.02;17.67;;;;;;;4.14;60.79;99991.56;5082358;28;20111;-19
2022/03/30 00:25:59;;;;;;;28.17;16.52;;;;;;;4.12;60.24;99988.94;5063775;28;20391;-19
2022/03/30 00:28:27;;;;;;;25.83;16.25;;;;;;;4.13;60.57;99989.84;5065278;28;20027;-22
2022/03/30 00:30:53;;;;;;;24.83;14.70;;;;;;;4.11;60.28;99993.28;5087628;28;20144;-22
2022/03/30 00:33:18;;;;;;;25.75;16.50;;;;;;;4.10;60.44;99994.16;5071132;28;20484;-22
2022/03/30 00:35:44;;;;;;;27.10;15.52;;;;;;;4.11;60.80;99992.44;5087934;28;20501;-21
2022/03/30 00:38:09;;;;;;;22.85;14.48;;;;;;;4.11;60.78;99997.66;5082644;28;20141;-21
2022/03/30 00:40:35;;;;;;;25.65;15.85;;;;;;;4.11;60.37;99992.44;5088489;28;20485;-22
2022/03/30 00:43:00;;;;;;;29.30;15.30;;;;;;;4.09;60.36;99986.31;5089529;28;20023;-22
2022/03/30 00:45:25;;;;;;;27.77;16.05;;;;;;;4.08;60.54;99985.47;5094501;28;20036;-22
2022/03/30 00:47:51;;;;;;;27.75;16.20;;;;;;;4.09;60.42;99975.88;5089576;28;20342;-22
2022/03/30 00:50:21;;;;;;;25.27;15.15;;;;;;;4.09;60.75;99975.88;5087682;28;20031;-22
2022/03/30 00:52:50;;;;;;;24.20;14.38;;;;;;;4.09;60.74;99973.25;5090772;28;20302;-23
2022/03/30 00:55:17;;;;;;;29.25;14.30;;;;;;;4.07;60.86;99964.56;5090064;28;20058;-22
2022/03/30 00:57:43;;;;;;;23.85;13.60;;;;;;;4.08;60.86;99971.53;5075032;28;20024;-22
2022/03/30 01:00:12;;;;;;;25.00;14.70;;;;;;;4.07;60.64;99973.25;5089348;28;20020;-22
2022/03/30 01:02:39;;;;;;;23.73;14.02;;;;;;;4.09;60.77;99970.66;5089731;28;20047;-22
2022/03/30 01:05:06;;;;;;;21.83;13.77;;;;;;;4.08;60.66;99963.69;5089237;28;20070;-22
2022/03/30 01:07:31;;;;;;;21.65;13.18;;;;;;;4.09;60.50;99968.03;5090314;28;20060;-22
2022/03/30 01:09:56;;;;;;;24.15;12.80;;;;;;;4.10;60.89;99975.88;5092706;28;20059;-22
2022/03/30 01:12:22;;;;;;;19.20;12.43;;;;;;;4.11;60.65;99971.56;5072879;28;20032;-22
2022/03/30 01:14:47;;;;;;;21.33;12.48;;;;;;;4.08;60.79;99961.97;5092350;28;20020;-22
2022/03/30 01:17:13;;;;;;;20.90;12.95;;;;;;;4.12;60.48;99973.28;5091706;28;20024;-22
2022/03/30 01:19:38;;;;;;;16.08;10.88;;;;;;;4.12;60.77;99973.28;5075380;28;20023;-22
2022/03/30 01:22:07;;;;;;;22.17;12.85;;;;;;;4.13;60.88;99966.34;5074777;28;20028;-22
2022/03/30 01:24:33;;;;;;;20.70;11.90;;;;;;;4.12;60.63;99962.84;5091128;28;20030;-22
2022/03/30 01:26:59;;;;;;;23.25;11.02;;;;;;;4.14;60.71;99965.47;5087043;28;20067;-22
2022/03/30 01:32:28;;;;;;;18.95;10.98;;;;;;;4.14;60.53;99961.13;5076025;28;20086;-21
2022/03/30 01:34:59;;;;;;;22.08;11.20;;;;;;;4.15;60.51;99956.75;5089997;28;20035;-22
2022/03/30 01:37:27;;;;;;;18.63;11.37;;;;;;;4.15;61.37;99947.22;5088526;28;20030;-22
2022/03/30 01:39:53;;;;;;;17.42;11.48;;;;;;;4.15;60.73;99952.44;5076822;28;20020;-22
2022/03/30 01:42:18;;;;;;;18.52;11.57;;;;;;;4.16;60.73;99950.66;5074386;28;20031;-22
2022/03/30 01:44:44;;;;;;;18.13;11.48;;;;;;;4.15;60.64;99947.22;5085850;28;20032;-22
2022/03/30 01:47:10;;;;;;;20.92;11.98;;;;;;;4.17;61.03;99945.47;5090206;28;20107;-22
2022/03/30 01:49:36;;;;;;;16.25;10.48;;;;;;;4.16;61.13;99948.94;5093092;28;20115;-22
2022/03/30 01:52:02;;;;;;;19.40;11.13;;;;;;;4.16;61.03;99938.50;5089173;28;20084;-22
2022/03/30 01:54:28;;;;;;;19.42;10.63;;;;;;;4.18;61.06;99941.13;5072004;28;20020;-23
2022/03/30 01:56:55;;;;;;;19.30;11.55;;;;;;;4.18;60.59;99941.13;5091401;28;20036;-21
2022/03/30 01:59:21;;;;;;;19.83;11.70;;;;;;;4.18;61.19;99936.78;5089586;28;20059;-22
2022/03/30 02:01:47;;;;;;;19.33;11.45;;;;;;;4.18;60.62;99935.91;5072558;28;20028;-22
2022/03/30 02:04:13;;;;;;;16.92;10.73;;;;;;;4.18;60.98;99931.56;5089487;28;20035;-22
2022/03/30 02:06:39;;;;;;;17.45;10.70;;;;;;;4.18;60.71;99928.97;5091927;28;20048;-22
2022/03/30 02:09:05;;;;;;;17.48;10.70;;;;;;;4.19;60.40;99928.09;5087057;28;20031;-22
2022/03/30 02:11:31;;;;;;;15.95;10.80;;;;;;;4.20;61.01;99922.00;5085592;28;20066;-21
2022/03/30 02:13:57;;;;;;;16.80;10.15;;;;;;;4.21;60.90;99925.50;5087896;28;20077;-22
2022/03/30 02:16:23;;;;;;;16.25;9.80;;;;;;;4.21;60.67;99925.50;5092062;28;20077;-23
2022/03/30 02:18:48;;;;;;;16.00;10.45;;;;;;;4.21;60.71;99923.72;5087512;28;20501;-23
2022/03/30 02:21:15;;;;;;;16.23;10.27;;;;;;;4.21;60.83;99918.50;5087519;28;20103;-22
2022/03/30 02:23:41;;;;;;;19.83;10.43;;;;;;;4.21;60.62;99909.81;5087707;28;20028;-22
2022/03/30 02:26:07;;;;;;;17.50;10.02;;;;;;;4.21;60.46;99900.25;5089079;28;20115;-22
2022/03/30 02:28:32;;;;;;;16.30;10.35;;;;;;;4.23;60.90;99897.63;5085899;28;20098;-23
2022/03/30 02:30:58;;;;;;;20.15;10.50;;;;;;;4.23;61.21;99895.03;5089010;28;20630;-22
2022/03/30 02:33:23;;;;;;;17.30;10.48;;;;;;;4.22;60.89;99891.56;5083802;28;20039;-23
2022/03/30 02:35:50;;;;;;;14.68;9.07;;;;;;;4.23;61.00;99895.03;5078889;28;20023;-22
2022/03/30 02:38:16;;;;;;;20.05;9.93;;;;;;;4.24;60.65;99883.75;5084087;28;20024;-23
2022/03/30 02:40:41;;;;;;;14.77;9.25;;;;;;;4.24;60.83;99892.44;5067140;28;20401;-22
2022/03/30 02:43:06;;;;;;;14.82;9.20;;;;;;;4.24;61.04;99889.81;5085653;28;20024;-23
2022/03/30 02:45:32;;;;;;;17.27;8.90;;;;;;;4.25;60.89;99885.47;5088179;28;20521;-23
2022/03/30 02:50:44;;;;;;;10.90;8.13;;;;;;;4.27;60.64;99885.50;5090925;28;20273;-23
2022/03/30 02:53:10;;;;;;;11.23;7.93;;;;;;;4.26;60.97;99878.53;5083663;28;20884;-23
2022/03/30 02:55:35;;;;;;;13.10;8.80;;;;;;;4.26;60.74;99879.38;5086802;28;20118;-23
2022/03/30 02:58:01;;;;;;;11.50;7.55;;;;;;;4.27;60.94;99882.88;5088927;28;20094;-23
2022/03/30 03:00:27;;;;;;;14.65;8.95;;;;;;;4.28;60.79;99884.63;5086648;28;20055;-23
2022/03/30 03:02:53;;;;;;;13.50;7.28;;;;;;;4.28;61.12;99884.63;5088523;28;20024;-23
2022/03/30 03:05:18;;;;;;;16.10;7.70;;;;;;;4.26;60.77;99887.22;5068985;28;20023;-23
2022/03/30 03:07:44;;;;;;;10.57;6.57;;;;;;;4.29;60.74;99891.56;5068461;28;20492;-23
2022/03/30 03:10:09;;;;;;;12.77;7.22;;;;;;;4.28;60.94;99884.63;5071309;28;20030;-22
2022/03/30 03:12:35;;;;;;;10.57;7.10;;;;;;;4.28;60.91;99889.84;5088987;28;20047;-23
2022/03/30 03:15:00;;;;;;;12.13;8.05;;;;;;;4.28;61.09;99887.22;5065061;28;20026;-23
2022/03/30 03:17:26;;;;;;;11.25;7.43;;;;;;;4.29;60.91;99891.56;5083393;28;20036;-22
2022/03/30 03:19:51;;;;;;;11.38;7.25;;;;;;;4.29;61.27;99882.00;5085298;28;20024;-22
2022/03/30 03:22:17;;;;;;;12.38;7.03;;;;;;;4.29;61.13;99886.34;5088393;28;20107;-22
2022/03/30 03:24:42;;;;;;;14.90;7.50;;;;;;;4.29;60.92;99878.50;5088781;28;20051;-22
2022/03/30 03:27:08;;;;;;;9.35;7.03;;;;;;;4.30;60.68;99877.69;5084597;28;20067;-22
2022/03/30 03:29:33;;;;;;;11.25;7.35;;;;;;;4.30;60.99;99877.69;5083026;28;20029;-21
2022/03/30 03:31:59;;;;;;;13.05;6.25;;;;;;;4.30;60.87;99882.91;5085381;28;20039;-19
2022/03/30 03:34:24;;;;;;;12.07;6.85;;;;;;;4.29;60.96;99875.91;5084423;28;20448;-27
2022/03/30 03:36:50;;;;;;;11.77;7.60;;;;;;;4.30;61.16;99872.44;5087590;28;20030;-23
2022/03/30 03:39:15;;;;;;;14.50;7.53;;;;;;;4.30;60.91;99869.84;5085041;28;20020;-19
2022/03/30 03:41:41;;;;;;;13.82;8.05;;;;;;;4.30;60.58;99872.44;5083325;28;20020;-23
2022/03/30 03:44:06;;;;;;;10.68;6.03;;;;;;;4.29;60.78;99868.97;5064827;28;20032;-20
2022/03/30 03:46:32;;;;;;;13.50;6.50;;;;;;;4.31;60.50;99868.97;5087579;28;20085;-20
2022/03/30 03:48:57;;;;;;;10.82;6.43;;;;;;;4.30;60.62;99869.84;5072295;28;20429;-20
2022/03/30 03:51:23;;;;;;;12.30;6.68;;;;;;;4.30;61.02;99873.31;5085257;28;20107;-22
2022/03/30 03:53:49;;;;;;;9.88;6.40;;;;;;;4.31;60.76;99874.19;5073162;28;20020;-20
2022/03/30 03:56:14;;;;;;;12.75;6.88;;;;;;;4.28;60.68;99868.94;5087767;28;20182;-22
2022/03/30 03:58:40;;;;;;;11.98;7.93;;;;;;;4.28;60.97;99880.28;5093531;28;20028;-19
2022/03/30 04:01:05;;;;;;;12.88;7.25;;;;;;;4.28;60.81;99874.16;5096287;28;20027;-20
2022/03/30 04:03:31;;;;;;;11.57;6.93;;;;;;;4.29;60.78;99871.56;5089845;28;20040;-20
2022/03/30 04:05:56;;;;;;;12.85;7.05;;;;;;;4.29;60.88;99870.69;5091413;28;20024;-20
2022/03/30 04:08:22;;;;;;;13.50;6.10;;;;;;;4.28;60.92;99869.84;5089044;28;20036;-22
2022/03/30 04:10:48;;;;;;;10.63;6.63;;;;;;;4.28;61.15;99863.72;5068702;28;20028;-20
2022/03/30 04:13:13;;;;;;;11.20;6.28;;;;;;;4.29;61.09;99868.06;5088193;28;20020;-21
2022/03/30 04:15:39;;;;;;;11.88;6.18;;;;;;;4.26;61.30;99866.34;5085545;28;20024;-21
2022/03/30 04:18:05;;;;;;;10.70;7.32;;;;;;;4.26;60.86;99868.94;5070331;28;20494;-27
2022/03/30 04:20:31;;;;;;;11.60;6.35;;;;;;;4.23;60.60;99861.97;5083531;28;20103;-23
2022/03/30 04:22:57;;;;;;;11.73;6.45;;;;;;;4.24;60.80;99855.88;5083344;28;20024;-23
2022/03/30 04:25:23;;;;;;;11.68;6.32;;;;;;;4.23;61.29;99854.16;5071820;28;20023;-20
2022/03/30 04:27:50;;;;;;;12.95;6.35;;;;;;;4.22;60.96;99848.91;5087337;28;20115;-19
2022/03/30 04:30:17;;;;;;;29.17;16.05;;;;;;;4.22;60.71;99843.69;5088579;28;20028;-20
2022/03/30 04:32:44;;;;;;;15.75;9.30;;;;;;;4.22;60.99;99843.69;5083857;28;20747;-20
2022/03/30 04:35:11;;;;;;;24.13;14.32;;;;;;;4.22;60.62;99839.34;5084312;28;20059;-21
2022/03/30 04:37:38;;;;;;;25.88;14.88;;;;;;;4.21;61.08;99844.56;5087785;28;20028;-22
2022/03/30 04:40:04;;;;;;;28.92;16.17;;;;;;;4.20;61.27;99841.06;5072135;28;20024;-22
2022/03/30 04:42:29;;;;;;;23.75;14.45;;;;;;;4.20;60.90;99841.06;5071637;28;20026;-20
2022/03/30 04:44:55;;;;;;;21.85;15.48;;;;;;;4.20;61.00;99841.06;5090487;28;20404;-20
2022/03/30 04:47:20;;;;;;;25.02;15.07;;;;;;;4.19;61.21;99846.28;5088508;28;20482;-27
2022/03/30 04:49:46;;;;;;;24.08;14.57;;;;;;;4.19;60.55;99846.28;5086629;28;20125;-20
2022/03/30 04:52:11;;;;;;;22.23;13.85;;;;;;;4.18;60.75;99835.00;5090934;28;20024;-20
2022/03/30 04:54:37;;;;;;;21.77;13.75;;;;;;;4.16;60.39;99839.31;5057452;28;20015;-22
2022/03/30 04:57:03;;;;;;;20.85;13.10;;;;;;;4.15;60.94;99836.72;5072690;28;20054;-23
2022/03/30 04:59:28;;;;;;;18.25;13.10;;;;;;;4.14;60.92;99838.47;5087949;28;20035;-20
2022/03/30 05:01:54;;;;;;;21.63;13.93;;;;;;;4.15;60.67;99837.59;5088359;28;20378;-19
2022/03/30 05:04:19;;;;;;;20.55;12.23;;;;;;;4.13;60.81;99844.53;5089666;28;20102;-20
2022/03/30 05:06:45;;;;;;;19.48;11.88;;;;;;;4.11;60.60;99847.13;5088050;28;20035;-26
2022/03/30 05:09:12;;;;;;;15.77;10.43;;;;;;;4.10;61.67;99842.78;5073007;28;20027;-19
2022/03/30 05:11:39;;;;;;;15.48;10.65;;;;;;;4.08;60.80;99847.13;5086076;28;20423;-23
2022/03/30 05:14:05;;;;;;;16.67;9.88;;;;;;;4.07;60.90;99844.53;5088900;28;20081;-23
2022/03/30 05:16:31;;;;;;;16.73;9.27;;;;;;;4.07;60.91;99849.75;5085541;28;20508;-24
2022/03/30 05:18:56;;;;;;;12.90;8.90;;;;;;;4.07;61.29;99853.19;5085589;28;20869;-20
2022/03/30 05:21:22;;;;;;;16.02;10.52;;;;;;;4.06;61.13;99845.34;5090286;28;20016;-25
2022/03/30 05:23:48;;;;;;;19.42;9.82;;;;;;;4.03;61.04;99838.41;5095972;28;20055;-23
2022/03/30 05:26:13;;;;;;;16.13;9.30;;;;;;;4.03;60.93;99838.41;5086479;28;20442;-20
2022/03/30 05:28:40;;;;;;;16.35;10.27;;;;;;;4.03;60.78;99832.31;5072040;28;20020;-20
2022/03/30 05:31:06;;;;;;;14.50;8.75;;;;;;;4.01;61.04;99840.16;5092754;28;20024;-23
2022/03/30 05:33:32;;;;;;;14.77;9.48;;;;;;;4.02;61.02;99835.78;5091755;28;20020;-22
2022/03/30 05:35:57;;;;;;;16.75;9.00;;;;;;;4.01;61.37;99834.03;5071100;28;20023;-20
2022/03/30 05:38:24;;;;;;;13.57;8.70;;;;;;;3.99;61.05;99831.44;5091723;28;20024;-20
2022/03/30 05:40:50;;;;;;;15.18;8.27;;;;;;;3.98;61.21;99835.75;5092674;28;20034;-19
2022/03/30 05:43:17;;;;;;;16.27;8.27;;;;;;;3.98;61.60;99832.31;5093164;28;20028;-20
2022/03/30 05:45:43;;;;;;;14.73;8.52;;;;;;;3.97;61.37;99839.25;5087464;28;20028;-20
2022/03/30 05:48:09;;;;;;;15.18;7.88;;;;;;;4.00;61.44;99837.53;5090304;28;20024;-23
2022/03/30 05:50:34;;;;;;;12.95;8.10;;;;;;;3.98;61.27;99827.06;5089263;28;20016;-29
2022/03/30 05:53:00;;;;;;;15.95;8.05;;;;;;;3.98;61.27;99832.31;5092228;28;20441;-20
2022/03/30 05:55:26;;;;;;;14.02;7.65;;;;;;;3.97;61.36;99828.81;5095393;28;20098;-19
2022/03/30 05:57:51;;;;;;;11.85;7.63;;;;;;;4.00;61.60;99829.69;5075920;28;20038;-20
2022/03/30 06:00:17;;;;;;;10.30;7.25;;;;;;;4.01;61.13;99828.81;5089479;28;20016;-22
2022/03/30 06:02:42;;;;;;;9.93;7.43;;;;;;;4.01;61.14;99828.81;5091506;28;20470;-25
2022/03/30 06:05:09;;;;;;;10.48;7.00;;;;;;;4.00;61.39;99827.94;5092860;28;20074;-20
2022/03/30 06:07:34;;;;;;;10.07;6.90;;;;;;;4.00;61.57;99816.66;5091115;28;20027;-20
2022/03/30 06:10:00;;;;;;;11.93;6.47;;;;;;;4.01;61.17;99828.81;5093916;28;20066;-22
2022/03/30 06:12:25;;;;;;;12.93;6.28;;;;;;;4.02;61.75;99821.00;5089246;28;20032;-22
2022/03/30 06:14:51;;;;;;;18.42;7.00;;;;;;;4.02;61.33;99821.00;5089532;28;20489;-20
2022/03/30 06:17:18;;;;;;;13.50;6.75;;;;;;;4.03;61.34;99821.88;5091388;28;20023;-21
2022/03/30 06:19:46;;;;;;;10.20;5.97;;;;;;;4.04;61.47;99821.00;5090158;28;20379;-21
2022/03/30 06:22:12;;;;;;;12.20;6.50;;;;;;;4.05;61.41;99820.13;5072606;28;20481;-21
2022/03/30 06:24:39;;;;;;;13.63;7.13;;;;;;;4.05;61.31;99820.13;5089992;28;20028;-24
2022/03/30 06:27:06;;;;;;;10.27;6.63;;;;;;;4.06;61.56;99814.03;5073043;28;20084;-19
2022/03/30 06:29:35;;;;;;;13.73;6.43;;;;;;;4.08;61.75;99826.25;5092670;28;20031;-22
2022/03/30 06:32:01;;;;;;;9.25;6.15;;;;;;;4.11;61.91;99831.47;5093360;28;20532;-21
2022/03/30 06:34:26;;;;;;;11.20;7.40;;;;;;;4.11;61.73;99821.03;5090796;28;20028;-22
2022/03/30 06:36:53;;;;;;;9.10;5.32;;;;;;;4.15;61.15;99827.16;5088932;28;20069;-20
2022/03/30 06:39:18;;;;;;;11.43;5.38;;;;;;;4.16;61.89;99820.16;5087360;28;20036;-23
2022/03/30 06:41:44;;;;;;;9.25;5.60;;;;;;;4.18;61.76;99806.28;5092055;28;20028;-21
2022/03/30 06:44:10;;;;;;;7.68;5.10;;;;;;;4.21;61.77;99811.50;5091467;28;20480;-21
2022/03/30 06:46:38;;;;;;;12.45;5.25;;;;;;;4.22;61.90;99808.03;5089831;28;20028;-20
2022/03/30 06:49:09;;;;;;;8.77;5.15;;;;;;;4.26;62.04;99802.81;5093230;28;20031;-22
2022/03/30 06:51:35;;;;;;;;;;;;;;;4.29;62.15;99808.91;5089631;28;20024;-23
2022/03/30 06:54:00;;;;;;;9.68;5.38;;;;;;;4.30;62.08;99808.03;5056745;28;20319;-20
2022/03/30 06:56:26;;;;;;;9.32;5.40;;;;;;;4.34;61.66;99806.31;5092712;28;20122;-20
2022/03/30 06:58:52;;;;;;;9.63;5.18;;;;;;;4.37;62.19;99806.34;5091177;28;20020;-20
2022/03/30 07:01:18;;;;;;;9.93;4.80;;;;;;;4.39;61.81;99803.69;5090464;28;20073;-22
2022/03/30 07:03:43;;;;;;;7.38;4.82;;;;;;;4.42;62.05;99809.81;5087744;28;20023;-28
2022/03/30 07:06:09;;;;;;;8.95;4.25;;;;;;;4.48;61.77;99801.13;5089532;28;20050;-24
2022/03/30 07:11:18;;;;;;;7.50;4.10;;;;;;;4.55;62.04;99799.38;5099215;28;20039;-22
2022/03/30 07:13:44;;;;;;;10.65;4.47;;;;;;;4.60;61.83;99797.66;5096197;28;20027;-20
2022/03/30 07:16:10;;;;;;;6.10;4.28;;;;;;;4.65;61.70;99801.16;5076564;28;20031;-24
2022/03/30 07:18:35;;;;;;;9.43;4.30;;;;;;;4.68;62.11;99801.16;5073317;28;20024;-23
2022/03/30 07:21:01;;;;;;;5.97;3.72;;;;;;;4.73;61.55;99788.97;5092022;28;20067;-20
2022/03/30 07:23:26;;;;;;;10.85;5.18;;;;;;;4.77;62.02;99789.81;5089955;28;20027;-20
2022/03/30 07:25:52;;;;;;;7.43;3.92;;;;;;;4.83;61.72;99787.22;5093456;28;20446;-23
2022/03/30 07:28:18;;;;;;;11.48;5.03;;;;;;;4.86;61.82;99786.34;5090680;28;20024;-20
2022/03/30 07:30:45;;;;;;;6.38;3.65;;;;;;;4.90;62.18;99780.25;5090128;28;20535;-23
2022/03/30 07:33:10;;;;;;;10.82;4.38;;;;;;;4.96;62.25;99790.72;5092101;28;20414;-22
2022/03/30 07:35:37;;;;;;;5.97;3.97;;;;;;;4.99;62.02;99785.50;5087218;28;20036;-20
2022/03/30 07:38:03;;;;;;;11.80;4.75;;;;;;;5.04;62.02;99782.88;5086835;28;20118;-23
2022/03/30 07:40:29;;;;;;;11.32;4.93;;;;;;;5.08;62.04;99781.13;5092036;28;20569;-21
2022/03/30 07:42:55;;;;;;;7.45;4.13;;;;;;;5.12;62.12;99770.69;5089033;28;20107;-20
2022/03/30 07:45:21;;;;;;;5.50;3.90;;;;;;;5.18;62.53;99774.13;5088696;28;20409;-22
2022/03/30 07:47:47;;;;;;;6.80;4.22;;;;;;;5.22;62.38;99776.75;5091009;28;20019;-19
2022/03/30 07:50:13;;;;;;;10.68;4.35;;;;;;;5.26;61.83;99788.94;5088066;28;20470;-21
2022/03/30 07:52:40;;;;;;;10.32;5.00;;;;;;;5.32;61.61;99787.19;5088915;28;20537;-20
2022/03/30 07:55:08;;;;;;;11.15;4.13;;;;;;;5.36;61.81;99779.34;5087706;28;20032;-24
2022/03/30 07:57:36;;;;;;;7.88;3.97;;;;;;;5.43;61.87;99787.19;5073660;28;20509;-23
2022/03/30 08:00:04;;;;;;;10.40;3.60;;;;;;;5.47;61.22;99776.69;5089437;28;20044;-27
2022/03/30 08:02:30;;;;;;;7.70;4.00;;;;;;;5.55;61.47;99776.69;5069259;28;20227;-21
2022/03/30 08:04:55;;;;;;;7.70;3.85;;;;;;;5.60;61.51;99766.22;5087473;28;20284;-23
2022/03/30 08:07:22;;;;;;;9.90;4.15;;;;;;;5.65;61.08;99760.09;5090748;28;20116;-21
2022/03/30 08:09:48;;;;;;;8.52;3.70;;;;;;;5.70;61.73;99767.06;5093365;28;20032;-22
2022/03/30 08:12:15;;;;;;;7.13;3.42;;;;;;;5.73;61.22;99762.66;5070946;28;20405;-20
2022/03/30 08:14:44;;;;;;;6.20;3.58;;;;;;;5.78;61.38;99758.28;5090335;28;20024;-20
2022/03/30 08:17:10;;;;;;;8.38;3.28;;;;;;;5.85;61.04;99756.53;5085119;28;20024;-21
2022/03/30 08:19:35;;;;;;;8.60;3.88;;;;;;;5.89;61.54;99752.13;5089070;28;20032;-22
2022/03/30 08:24:46;;;;;;;6.60;3.80;;;;;;;5.96;60.80;99750.34;5090736;28;20148;-20
2022/03/30 08:27:24;;;;;;;7.80;4.18;;;;;;;6.02;61.03;99740.75;5082011;28;20020;-20
2022/03/30 08:29:51;;;;;;;6.18;3.95;;;;;;;6.06;60.70;99748.63;5084381;28;20437;-20
2022/03/30 08:32:17;;;;;;;6.38;3.05;;;;;;;6.11;60.78;99745.06;5092755;28;20024;-21
2022/03/30 08:34:43;;;;;;;7.05;3.85;;;;;;;6.17;60.93;99741.53;5087944;28;20039;-23
2022/03/30 08:37:10;;;;;;;9.07;4.07;;;;;;;6.21;60.96;99759.00;5088688;28;20494;-23
2022/03/30 08:39:35;;;;;;;5.38;3.33;;;;;;;6.25;60.46;99750.25;5089519;28;20093;-22
2022/03/30 08:42:03;;;;;;;7.20;3.95;;;;;;;6.31;60.44;99754.56;5085699;28;20425;-21
2022/03/30 08:44:29;;;;;;;10.77;3.55;;;;;;;6.35;60.35;99755.41;5092887;28;20114;-24
2022/03/30 08:46:55;;;;;;;9.35;4.00;;;;;;;6.39;60.03;99758.00;5092466;28;20398;-20
2022/03/30 08:49:20;;;;;;;10.73;4.13;;;;;;;6.43;60.38;99756.22;5088429;28;20028;-22
2022/03/30 08:51:47;;;;;;;8.25;3.15;;;;;;;6.46;60.46;99756.19;5071670;28;20012;-20
2022/03/30 08:54:14;;;;;;;8.48;3.97;;;;;;;6.51;60.56;99756.19;5072523;28;20043;-20
2022/03/30 08:56:40;;;;;;;7.18;3.63;;;;;;;6.54;60.13;99756.16;5089446;28;20077;-20
2022/03/30 08:59:10;;;;;;;5.18;3.60;;;;;;;6.58;59.80;99757.00;5095111;28;20027;-21
2022/03/30 09:01:39;;;;;;;7.72;4.00;;;;;;;6.63;59.60;99755.19;5073899;28;20041;-23
2022/03/30 09:04:09;;;;;;;10.88;5.22;;;;;;;6.65;60.07;99753.44;5097618;28;20038;-20
2022/03/30 09:07:07;;;;;;;8.48;3.95;;;;;;;6.71;59.83;99747.28;5076051;28;20066;-22
2022/03/30 09:09:36;;;;;;;9.60;4.03;;;;;;;6.74;60.19;99748.13;5086597;28;20044;-20
2022/03/30 09:12:07;;;;;;;8.60;4.05;;;;;;;6.80;60.02;99745.47;5096275;28;20939;-22
2022/03/30 09:14:34;;;;;;;6.35;3.33;;;;;;;6.85;59.83;99741.94;5093522;28;20716;-20
2022/03/30 09:17:04;;;;;;;7.43;4.18;;;;;;;6.86;59.91;99735.78;5091325;28;20033;-21
2022/03/30 09:19:36;;;;;;;7.07;4.10;;;;;;;6.90;60.07;99737.50;5093732;28;20028;-19
2022/03/30 09:22:03;;;;;;;5.05;3.65;;;;;;;6.92;59.70;99741.00;5089707;28;20401;-20
2022/03/30 09:24:33;;;;;;;5.93;3.88;;;;;;;6.97;59.92;99744.44;5076657;28;20074;-21
2022/03/30 09:27:02;;;;;;;7.90;3.88;;;;;;;7.01;59.66;99742.66;5089408;28;20032;-22
2022/03/30 09:29:31;;;;;;;8.18;3.90;;;;;;;7.04;59.59;99735.63;5089848;28;20028;-20
2022/03/30 09:31:57;;;;;;;9.02;4.03;;;;;;;7.09;59.66;99743.47;5091044;28;20036;-20
2022/03/30 09:34:22;;;;;;;8.80;4.32;;;;;;;7.15;59.44;99742.53;5072769;28;20035;-20
2022/03/30 09:36:52;;;;;;;8.32;5.30;;;;;;;7.19;59.35;99737.25;5093943;28;20020;-22
2022/03/30 09:39:37;;;;;;;6.25;3.70;;;;;;;7.23;59.25;99735.44;5092734;28;20019;-21
2022/03/30 09:42:04;;;;;;;9.32;4.35;;;;;;;7.29;59.44;99730.16;5087622;28;20067;-20
2022/03/30 09:44:31;;;;;;;8.50;4.10;;;;;;;7.31;59.64;99725.75;5091199;28;20016;-20
2022/03/30 09:47:05;;;;;;;6.43;4.00;;;;;;;7.38;59.73;99723.06;5070621;28;20085;-20
2022/03/30 09:49:34;;;;;;;7.35;4.13;;;;;;;7.44;59.44;99723.84;5089688;28;20046;-20
2022/03/30 09:51:59;;;;;;;5.18;3.35;;;;;;;7.48;59.50;99729.06;5090459;28;20382;-24
2022/03/30 09:54:40;;;;;;;6.75;3.30;;;;;;;7.53;59.23;99717.63;5089491;28;20027;-20
2022/03/30 09:57:14;;;;;;;10.43;4.50;;;;;;;7.58;59.11;99721.06;5089884;28;20023;-22
2022/03/30 10:00:03;;;;;;;10.23;3.60;;;;;;;7.66;59.40;99720.09;5091116;28;20085;-22
2022/03/30 10:02:43;;;;;;;8.43;4.60;;;;;;;7.70;59.19;99716.53;5080277;28;20051;-19
2022/03/30 10:05:10;;;;;;;6.57;3.85;;;;;;;7.75;59.02;99703.38;5095271;28;20032;-21
2022/03/30 10:07:36;;;;;;;10.63;3.60;;;;;;;7.83;58.80;99705.00;5072012;28;20366;-20
2022/03/30 10:10:03;;;;;;;8.15;3.72;;;;;;;7.88;59.03;99696.22;5069793;28;20029;-20
2022/03/30 10:12:29;;;;;;;6.32;3.58;;;;;;;7.90;59.42;99697.91;5091937;28;20051;-21
2022/03/30 10:14:55;;;;;;;7.88;3.28;;;;;;;7.98;58.91;99686.44;5072798;28;20500;-23
2022/03/30 10:17:22;;;;;;;8.52;4.13;;;;;;;8.04;58.82;99696.88;5093134;28;20047;-21
2022/03/30 10:19:49;;;;;;;8.80;3.08;;;;;;;8.09;58.90;99689.78;5090725;28;20035;-20
2022/03/30 10:22:45;;;;;;;8.20;4.72;;;;;;;8.17;58.96;99694.94;5088692;28;20031;-25
2022/03/30 10:25:10;;;;;;;8.02;3.88;;;;;;;8.24;58.55;99688.69;5091430;28;20024;-24
2022/03/30 10:27:55;;;;;;;7.25;3.58;;;;;;;8.30;58.41;99693.84;5091731;28;20023;-21
2022/03/30 10:30:26;;;;;;;9.45;3.58;;;;;;;8.37;58.41;99684.09;5073400;28;20021;-20
2022/03/30 10:32:55;;;;;;;;;;;;;;;8.43;58.23;99678.75;5091655;28;20036;-20
2022/03/30 10:35:21;;;;;;;8.82;3.30;;;;;;;8.51;58.25;99675.13;5087739;28;19908;-22
2022/03/30 10:38:07;;;;;;;6.25;3.28;;;;;;;8.59;58.16;99674.16;5073612;28;20026;-19
2022/03/30 10:40:33;;;;;;;5.43;3.20;;;;;;;8.66;58.22;99672.28;5088360;28;20078;-20
2022/03/30 10:43:00;;;;;;;7.70;4.10;;;;;;;8.73;58.08;99673.03;5089736;28;20024;-20
2022/03/30 10:45:28;;;;;;;6.68;3.05;;;;;;;8.82;57.96;99679.88;5091443;28;20450;-20
2022/03/30 10:48:06;;;;;;;5.13;2.88;;;;;;;8.90;57.97;99677.13;5090289;28;20055;-25
2022/03/30 10:50:34;;;;;;;7.10;3.30;;;;;;;8.99;57.68;99671.69;5088829;28;20381;-23
2022/03/30 10:52:59;;;;;;;6.78;2.83;;;;;;;9.05;57.87;99662.81;5091861;28;20032;-23
2022/03/30 10:55:25;;;;;;;9.07;3.95;;;;;;;9.14;57.62;99665.25;5072372;28;20665;-20
2022/03/30 10:57:58;;;;;;;7.22;3.33;;;;;;;9.19;56.99;99657.28;5090451;28;20032;-20
2022/03/30 11:00:33;;;;;;;5.53;2.85;;;;;;;9.25;57.31;99662.44;5068019;28;20016;-20
2022/03/30 11:03:14;;;;;;;6.28;3.83;;;;;;;9.32;57.35;99653.53;5090530;28;20078;-23
2022/03/30 11:05:45;;;;;;;5.55;2.90;;;;;;;9.40;57.38;99644.59;5090254;28;20521;-21
2022/03/30 11:08:32;;;;;;;7.93;2.95;;;;;;;9.46;57.12;99650.59;5088199;28;20028;-20
2022/03/30 11:11:00;;;;;;;6.78;2.97;;;;;;;9.52;56.61;99651.38;5090340;28;20020;-20
2022/03/30 11:13:26;;;;;;;11.13;3.13;;;;;;;9.58;56.61;99649.50;5087185;28;20069;-19
2022/03/30 11:15:59;;;;;;;7.88;3.65;;;;;;;9.65;56.99;99644.06;5091024;28;20028;-20
2022/03/30 11:18:26;;;;;;;4.55;3.22;;;;;;;9.67;56.86;99643.13;5090696;28;20075;-24
2022/03/30 11:21:14;;;;;;;4.93;2.90;;;;;;;9.73;56.57;99643.00;5072784;28;20473;-20
2022/03/30 11:23:55;;;;;;;7.15;3.67;;;;;;;9.77;56.58;99638.53;5091031;28;20028;-20
2022/03/30 11:26:22;;;;;;;6.75;2.88;;;;;;;9.83;56.20;99635.75;5092232;28;20047;-23
2022/03/30 11:28:48;;;;;;;7.07;3.20;;;;;;;9.87;56.73;99634.78;5089689;28;20067;-21
2022/03/30 11:31:19;;;;;;;6.80;3.25;;;;;;;9.91;56.34;99634.72;5090410;28;20051;-20
2022/03/30 11:33:45;;;;;;;7.53;3.38;;;;;;;9.93;56.40;99633.78;5088930;28;20038;-26
2022/03/30 11:36:10;;;;;;;4.03;2.38;;;;;;;9.97;55.85;99629.31;5086658;28;20023;-21
2022/03/30 11:38:41;;;;;;;5.53;2.60;;;;;;;10.02;56.43;99632.72;5069472;28;20024;-20
2022/03/30 11:41:08;;;;;;;8.07;3.50;;;;;;;10.04;56.76;99622.97;5087039;28;20043;-20
2022/03/30 11:46:28;;;;;;;7.68;3.35;;;;;;;10.11;55.91;99621.09;5091474;28;20116;-20
2022/03/30 11:48:53;;;;;;;6.72;3.15;;;;;;;10.16;56.28;99619.19;5086990;28;20068;-24